Terminal Aerodrome Forecast
Issued by NWS Sioux Falls, SD

Home | Current Version | Previous Version | Graphics & Text | Print | Product List | Glossary On
Versions: 1 2 3 4 5 6 7 8 9 10 11 12 13 14 15 16 17 18 19 20
000
FTUS43 KFSD 211745
TAFHON
TAF
KHON 211745Z 2118/2218 16010KT 2SM BR OVC002
     FM212000 15011KT 3SM BR OVC004
     FM220500 15008KT 4SM -RAPL BR OVC008
     FM221500 36006KT 2SM -RASN BR OVC004=

USA.gov is the U.S. government's official web portal to all federal, state and local government web resources and services.